Time;durP1;ratioP1;P1;durP2;ratioP2;P2;SDS_P1;SDS_P2;PMS_P1;PMS_P2;Temp;Humidity;BMP_temperature;BMP_pressure;BME280_temperature;BME280_humidity;BME280_pressure;Samples;Min_cycle;Max_cycle;Signal;HPM_P1;HPM_P2
2023/12/27 00:01:34;;;;;;;0.30;0.30;;;;;;;7.67;81.94;99980.56;5094056;28;20040;-65
2023/12/27 00:04:04;;;;;;;0.40;0.40;;;;;;;7.61;81.18;99975.38;5094478;28;20494;-65
2023/12/27 00:06:33;;;;;;;0.30;0.30;;;;;;;7.47;81.70;99981.91;5094659;28;20048;-65
2023/12/27 00:09:02;;;;;;;0.30;0.30;;;;;;;7.42;81.52;99999.63;5094068;28;20103;-65
2023/12/27 00:11:31;;;;;;;0.35;0.35;;;;;;;7.35;81.25;99991.88;5093988;28;20456;-65
2023/12/27 00:14:00;;;;;;;0.47;0.47;;;;;;;7.37;80.97;99992.75;5094293;28;20078;-65
2023/12/27 00:16:29;;;;;;;0.50;0.50;;;;;;;7.41;81.15;100002.97;5093987;28;20048;-65
2023/12/27 00:18:58;;;;;;;2.22;1.55;;;;;;;7.40;80.75;100000.44;5094150;28;20062;-65
2023/12/27 00:21:29;;;;;;;0.20;0.20;;;;;;;7.41;80.39;100004.69;5093940;28;20036;-65
2023/12/27 00:23:58;;;;;;;0.47;0.47;;;;;;;7.35;81.58;100007.09;5094083;28;20106;-65
2023/12/27 00:26:27;;;;;;;2.00;0.95;;;;;;;7.32;81.19;99986.72;5093864;28;20048;-66
2023/12/27 00:28:59;;;;;;;0.30;0.30;;;;;;;7.39;81.19;100001.25;5093248;28;20044;-65
2023/12/27 00:31:28;;;;;;;0.25;0.25;;;;;;;7.42;80.99;100014.00;5094024;28;20052;-65
2023/12/27 00:33:57;;;;;;;0.30;0.30;;;;;;;7.41;81.38;100007.22;5093955;28;20085;-65
2023/12/27 00:36:29;;;;;;;0.30;0.30;;;;;;;7.36;80.55;100009.69;5094352;28;20024;-65
2023/12/27 00:39:03;;;;;;;0.30;0.30;;;;;;;7.29;81.08;100017.16;5093660;28;20490;-65
2023/12/27 00:41:32;;;;;;;0.32;0.32;;;;;;;7.29;80.99;100022.25;5093723;28;20054;-65
2023/12/27 00:44:02;;;;;;;0.32;0.32;;;;;;;7.29;81.28;100029.88;5093504;28;20048;-65
2023/12/27 00:46:31;;;;;;;0.37;0.37;;;;;;;7.27;81.09;100034.88;5092703;28;20040;-65
2023/12/27 00:49:01;;;;;;;0.40;0.40;;;;;;;7.21;81.29;100039.00;5093857;28;20055;-65
2023/12/27 00:51:30;;;;;;;0.30;0.30;;;;;;;7.14;81.62;100049.88;5075255;28;20424;-66
2023/12/27 00:53:58;;;;;;;0.50;0.50;;;;;;;7.06;81.74;100048.88;5092222;28;20494;-65
2023/12/27 00:56:29;;;;;;;0.30;0.30;;;;;;;7.03;81.49;100053.91;5093528;28;20321;-65
2023/12/27 00:58:59;;;;;;;0.30;0.30;;;;;;;7.05;81.77;100057.31;5093766;28;20502;-66
2023/12/27 01:01:30;;;;;;;1.10;0.63;;;;;;;7.03;81.22;100053.91;5091996;28;20064;-66
2023/12/27 01:04:00;;;;;;;0.43;0.43;;;;;;;7.06;81.27;100053.94;5093673;28;20046;-65
2023/12/27 01:06:29;;;;;;;0.30;0.30;;;;;;;7.10;81.68;100061.63;5093472;28;20044;-65
2023/12/27 01:08:57;;;;;;;1.93;1.23;;;;;;;7.01;81.61;100068.22;5093669;28;20067;-65
2023/12/27 01:11:28;;;;;;;0.30;0.30;;;;;;;6.96;81.57;100068.13;5075591;28;20047;-65
2023/12/27 01:13:56;;;;;;;0.20;0.20;;;;;;;6.93;81.60;100077.38;5094059;28;20044;-65
2023/12/27 01:16:25;;;;;;;0.23;0.23;;;;;;;6.81;81.21;100077.13;5092095;28;20044;-64
2023/12/27 01:18:55;;;;;;;0.30;0.30;;;;;;;6.77;81.79;100085.50;5093999;28;20052;-65
2023/12/27 01:21:24;;;;;;;0.30;0.30;;;;;;;6.75;81.67;100088.84;5092012;28;20036;-64
2023/12/27 01:23:53;;;;;;;0.40;0.40;;;;;;;6.78;82.22;100093.13;5093527;28;20273;-65
2023/12/27 01:26:22;;;;;;;2.03;1.10;;;;;;;6.77;81.79;100090.59;5093457;28;20067;-65
2023/12/27 01:28:52;;;;;;;0.83;0.83;;;;;;;6.79;82.88;100094.00;5092008;28;20555;-65
2023/12/27 01:31:21;;;;;;;0.20;0.20;;;;;;;6.95;82.58;100093.50;5092137;28;20040;-65
2023/12/27 01:33:52;;;;;;;1.30;1.05;;;;;;;7.00;82.40;100104.59;5093486;28;20052;-65
2023/12/27 01:36:26;;;;;;;0.38;0.38;;;;;;;7.04;82.08;100096.19;5093833;28;20406;-65
2023/12/27 01:38:55;;;;;;;0.60;0.60;;;;;;;7.09;82.25;100104.75;5093397;28;20071;-65
2023/12/27 01:41:24;;;;;;;0.30;0.30;;;;;;;7.17;81.54;100098.16;5096590;28;20044;-66
2023/12/27 01:43:55;;;;;;;0.40;0.40;;;;;;;7.16;81.80;100101.53;5097355;28;20514;-65
2023/12/27 01:46:24;;;;;;;0.40;0.40;;;;;;;7.13;81.81;100109.06;5095579;28;20555;-65
2023/12/27 01:48:53;;;;;;;0.32;0.32;;;;;;;7.10;81.40;100111.56;5097001;28;20047;-65
2023/12/27 01:51:22;;;;;;;;;;;;;;;7.02;81.86;100108.00;5096186;28;20123;-65
2023/12/27 01:53:51;;;;;;;0.30;0.30;;;;;;;6.98;81.30;100104.53;5095661;28;19974;-65
2023/12/27 01:56:20;;;;;;;0.28;0.28;;;;;;;7.16;80.71;100111.66;5095417;28;20051;-65
2023/12/27 01:58:50;;;;;;;1.50;1.00;;;;;;;7.20;81.32;100115.97;5095598;28;20032;-65
2023/12/27 02:01:20;;;;;;;0.30;0.30;;;;;;;7.22;81.12;100116.88;5095311;28;20486;-65
2023/12/27 02:03:49;;;;;;;0.30;0.30;;;;;;;7.29;80.68;100113.63;5095576;28;20130;-65
2023/12/27 02:06:21;;;;;;;0.30;0.30;;;;;;;7.38;80.01;100116.34;5096643;28;20044;-65
2023/12/27 02:08:50;;;;;;;0.30;0.30;;;;;;;7.42;79.93;100118.09;5095155;28;20406;-65
2023/12/27 02:11:19;;;;;;;0.30;0.30;;;;;;;7.48;79.87;100117.38;5097120;28;20050;-65
2023/12/27 02:13:48;;;;;;;0.30;0.30;;;;;;;7.50;80.58;100111.50;5096512;28;20059;-65
2023/12/27 02:16:20;;;;;;;0.30;0.30;;;;;;;7.50;79.01;100101.34;5095363;28;20437;-65
2023/12/27 02:18:50;;;;;;;1.38;0.98;;;;;;;7.47;79.68;100101.28;5095196;28;20056;-65
2023/12/27 02:21:20;;;;;;;0.25;0.25;;;;;;;7.40;79.78;100107.94;5096843;28;20040;-65
2023/12/27 02:23:55;;;;;;;0.25;0.25;;;;;;;7.31;79.74;100114.50;5096583;28;20047;-65
2023/12/27 02:26:26;;;;;;;0.20;0.20;;;;;;;7.17;79.71;100108.31;5096285;28;20064;-65
2023/12/27 02:28:55;;;;;;;0.38;0.38;;;;;;;7.05;79.57;100113.16;5095878;28;20048;-65
2023/12/27 02:31:24;;;;;;;0.30;0.30;;;;;;;6.92;80.03;100111.16;5095844;28;20524;-65
2023/12/27 02:33:53;;;;;;;;;;;;;;;6.82;80.54;100119.41;5096524;28;20496;-65
2023/12/27 02:36:21;;;;;;;0.30;0.30;;;;;;;6.82;81.03;100119.41;5094710;28;19926;-66
2023/12/27 02:38:50;;;;;;;0.40;0.40;;;;;;;6.81;80.57;100108.44;5094422;28;20490;-65
2023/12/27 02:41:19;;;;;;;0.33;0.33;;;;;;;6.97;81.18;100114.66;5095565;28;20040;-65
2023/12/27 02:43:49;;;;;;;0.30;0.30;;;;;;;7.07;80.55;100131.78;5094758;28;20381;-65
2023/12/27 02:46:18;;;;;;;0.40;0.40;;;;;;;7.11;80.34;100134.44;5096279;28;20036;-65
2023/12/27 02:48:46;;;;;;;0.97;0.87;;;;;;;7.16;80.64;100134.50;5095436;28;20047;-65
2023/12/27 02:51:16;;;;;;;0.40;0.40;;;;;;;7.21;80.27;100130.38;5094025;28;20388;-65
2023/12/27 02:53:44;;;;;;;0.30;0.30;;;;;;;7.22;80.17;100132.94;5094310;28;20048;-65
2023/12/27 02:56:13;;;;;;;0.60;0.60;;;;;;;7.22;80.04;100137.19;5094513;28;20036;-65
2023/12/27 02:58:42;;;;;;;0.28;0.28;;;;;;;7.19;79.85;100134.59;5095805;28;20390;-65
2023/12/27 03:01:12;;;;;;;0.45;0.45;;;;;;;7.19;80.47;100137.13;5095208;28;20028;-65
2023/12/27 03:03:42;;;;;;;0.28;0.28;;;;;;;7.19;79.73;100126.97;5094430;28;20081;-65
2023/12/27 03:06:11;;;;;;;0.30;0.30;;;;;;;7.18;79.57;100130.31;5094309;28;20128;-66
2023/12/27 03:08:39;;;;;;;0.28;0.28;;;;;;;7.17;79.97;100123.56;5095656;28;20042;-65
2023/12/27 03:11:08;;;;;;;0.20;0.20;;;;;;;7.12;80.12;100130.22;5077297;28;20047;-65
2023/12/27 03:13:38;;;;;;;0.25;0.25;;;;;;;7.05;80.14;100125.84;5094197;28;20039;-65
2023/12/27 03:16:07;;;;;;;1.15;1.13;;;;;;;6.99;80.95;100118.09;5095067;28;20508;-65
2023/12/27 03:18:38;;;;;;;;;;;;;;;6.96;80.59;100123.13;5094182;28;20143;-65
2023/12/27 03:21:09;;;;;;;4.43;0.68;;;;;;;6.92;81.44;100121.31;5094817;28;19926;-65
2023/12/27 03:23:39;;;;;;;0.20;0.20;;;;;;;6.87;81.23;100112.75;5093981;28;20068;-65
2023/12/27 03:26:07;;;;;;;0.40;0.40;;;;;;;6.85;81.40;100122.03;5095048;28;20032;-65
2023/12/27 03:28:36;;;;;;;0.90;0.77;;;;;;;6.82;81.88;100134.63;5094921;28;20140;-65
2023/12/27 03:31:05;;;;;;;0.63;0.60;;;;;;;6.84;81.38;100136.38;5093286;28;20042;-65
2023/12/27 03:33:34;;;;;;;;;;;;;;;6.86;81.72;100137.28;5094036;28;20047;-65
2023/12/27 03:36:06;;;;;;;0.20;0.20;;;;;;;6.99;81.62;100130.78;5094759;28;19927;-65
2023/12/27 03:38:35;;;;;;;0.30;0.30;;;;;;;7.07;80.36;100136.88;5094746;28;20051;-65
2023/12/27 03:41:05;;;;;;;0.30;0.30;;;;;;;7.11;79.85;100134.44;5094581;28;20063;-65
2023/12/27 03:43:34;;;;;;;0.30;0.30;;;;;;;7.10;79.82;100140.31;5094025;28;20055;-66
2023/12/27 03:46:03;;;;;;;0.20;0.20;;;;;;;7.03;79.74;100127.50;5093310;28;20130;-65
2023/12/27 03:48:32;;;;;;;0.20;0.20;;;;;;;6.98;79.07;100131.63;5093323;28;20035;-65
2023/12/27 03:51:01;;;;;;;0.70;0.65;;;;;;;6.89;79.82;100137.34;5093220;28;20048;-65
2023/12/27 03:53:31;;;;;;;0.87;0.70;;;;;;;6.76;79.78;100140.44;5094130;28;20531;-65
2023/12/27 03:56:00;;;;;;;0.20;0.20;;;;;;;6.68;80.02;100141.94;5093726;28;20367;-65
2023/12/27 03:58:29;;;;;;;0.43;0.43;;;;;;;6.60;79.44;100139.25;5093076;28;20043;-65
2023/12/27 04:00:58;;;;;;;0.40;0.40;;;;;;;6.59;79.82;100142.63;5092819;28;20036;-65
2023/12/27 04:03:26;;;;;;;0.40;0.40;;;;;;;6.52;79.65;100143.31;5093784;28;20131;-65
2023/12/27 04:06:00;;;;;;;0.20;0.20;;;;;;;6.43;79.94;100145.59;5094542;28;20118;-65
2023/12/27 04:08:28;;;;;;;0.30;0.30;;;;;;;6.37;80.16;100163.22;5093876;28;20131;-65
2023/12/27 04:10:59;;;;;;;0.40;0.40;;;;;;;6.25;80.06;100157.84;5092932;28;20040;-65
2023/12/27 04:13:28;;;;;;;0.30;0.30;;;;;;;6.21;80.67;100178.88;5093794;28;20048;-65
2023/12/27 04:15:57;;;;;;;0.30;0.30;;;;;;;6.10;80.85;100170.16;5092866;28;20397;-65
2023/12/27 04:18:26;;;;;;;0.30;0.30;;;;;;;6.08;80.94;100166.72;5093712;28;20285;-65
2023/12/27 04:20:55;;;;;;;0.82;0.82;;;;;;;6.07;80.99;100165.00;5093876;28;20064;-66
2023/12/27 04:23:24;;;;;;;0.60;0.60;;;;;;;5.98;80.83;100167.31;5093565;28;20123;-65
2023/12/27 04:25:52;;;;;;;0.30;0.30;;;;;;;5.96;81.08;100171.47;5093907;28;20134;-65
2023/12/27 04:28:22;;;;;;;0.77;0.77;;;;;;;5.92;80.99;100172.22;5092452;28;20043;-65
2023/12/27 04:30:51;;;;;;;0.25;0.25;;;;;;;5.90;81.11;100178.94;5093045;28;20466;-65
2023/12/27 04:33:20;;;;;;;0.30;0.30;;;;;;;5.87;81.56;100176.31;5092225;28;20040;-66
2023/12/27 04:35:49;;;;;;;0.20;0.20;;;;;;;5.90;81.65;100169.63;5093871;28;20039;-65
2023/12/27 04:38:18;;;;;;;0.30;0.30;;;;;;;5.96;81.78;100171.47;5093816;28;20036;-65
2023/12/27 04:40:47;;;;;;;0.23;0.23;;;;;;;5.92;81.04;100169.69;5092279;28;20051;-65
2023/12/27 04:43:17;;;;;;;0.30;0.30;;;;;;;5.97;81.55;100179.09;5093702;28;20131;-65
2023/12/27 04:45:48;;;;;;;0.30;0.30;;;;;;;5.99;81.33;100171.56;5092199;28;20032;-65
2023/12/27 04:48:17;;;;;;;0.40;0.40;;;;;;;6.06;81.33;100178.50;5093720;28;20143;-65
2023/12/27 04:50:47;;;;;;;0.20;0.20;;;;;;;6.21;80.56;100181.44;5093674;28;20459;-65
2023/12/27 04:53:16;;;;;;;0.22;0.22;;;;;;;6.35;80.41;100192.75;5093302;28;20040;-65
2023/12/27 04:55:45;;;;;;;0.40;0.40;;;;;;;6.44;80.11;100187.03;5092229;28;20482;-65
2023/12/27 04:58:13;;;;;;;0.30;0.30;;;;;;;6.48;79.66;100192.22;5093300;28;20044;-65
2023/12/27 05:00:42;;;;;;;0.30;0.30;;;;;;;6.45;79.03;100183.69;5092441;28;20028;-66
2023/12/27 05:03:13;;;;;;;0.30;0.30;;;;;;;6.31;79.22;100196.00;5091917;28;20044;-65
2023/12/27 05:05:42;;;;;;;0.20;0.20;;;;;;;6.25;78.60;100197.53;5092453;28;20071;-65
2023/12/27 05:08:11;;;;;;;1.42;0.50;;;;;;;6.23;78.94;100192.44;5092337;28;20105;-65
2023/12/27 05:10:39;;;;;;;0.30;0.30;;;;;;;6.30;79.00;100199.38;5093829;28;20037;-65
2023/12/27 05:13:08;;;;;;;0.30;0.30;;;;;;;6.34;78.94;100185.94;5093425;28;20040;-65
2023/12/27 05:15:37;;;;;;;0.30;0.30;;;;;;;6.43;78.62;100201.38;5096446;28;20047;-65
2023/12/27 05:18:06;;;;;;;0.50;0.50;;;;;;;6.43;78.87;100206.44;5096213;28;20048;-66
2023/12/27 05:20:37;;;;;;;0.20;0.20;;;;;;;6.40;78.14;100216.53;5097406;28;20051;-66
2023/12/27 05:23:06;;;;;;;0.50;0.50;;;;;;;6.23;77.58;100202.59;5096895;28;20074;-65
2023/12/27 05:25:35;;;;;;;0.40;0.40;;;;;;;6.14;78.03;100202.38;5097041;28;20037;-66
2023/12/27 05:28:05;;;;;;;0.75;0.75;;;;;;;6.17;78.26;100207.50;5097814;28;20127;-65
2023/12/27 05:30:33;;;;;;;0.20;0.20;;;;;;;6.27;77.80;100204.38;5097024;28;20086;-66
2023/12/27 05:33:03;;;;;;;0.40;0.40;;;;;;;6.34;77.47;100205.38;5097099;28;20044;-66
2023/12/27 05:35:32;;;;;;;;;;;;;;;6.36;77.12;100212.19;5097397;28;20048;-65
2023/12/27 05:38:02;;;;;;;0.45;0.45;;;;;;;6.33;77.19;100227.34;5097031;28;19955;-65
2023/12/27 05:40:31;;;;;;;1.00;0.50;;;;;;;6.29;77.02;100232.28;5095829;28;20052;-66
2023/12/27 05:43:00;;;;;;;0.47;0.47;;;;;;;6.15;76.95;100229.41;5096924;28;20048;-66
2023/12/27 05:45:29;;;;;;;7.40;1.53;;;;;;;6.18;76.88;100233.69;5096865;28;20040;-66
2023/12/27 05:47:58;;;;;;;0.33;0.33;;;;;;;6.15;76.88;100234.47;5096680;28;20312;-66
2023/12/27 05:50:27;;;;;;;;;;;;;;;6.14;77.09;100242.91;5097221;28;20040;-65
2023/12/27 05:52:56;;;;;;;0.77;0.77;;;;;;;6.10;77.15;100246.16;5096836;28;19927;-66
2023/12/27 05:55:26;;;;;;;0.20;0.20;;;;;;;6.05;76.99;100242.66;5096747;28;20575;-66
2023/12/27 05:57:55;;;;;;;0.50;0.50;;;;;;;5.96;76.97;100244.94;5096381;28;20130;-66
2023/12/27 06:00:24;;;;;;;0.20;0.20;;;;;;;5.90;76.85;100252.41;5096650;28;20081;-66
2023/12/27 06:02:53;;;;;;;0.30;0.30;;;;;;;5.77;77.62;100253.69;5095978;28;20048;-66
2023/12/27 06:05:22;;;;;;;0.23;0.23;;;;;;;5.68;77.74;100255.13;5096348;28;20371;-66
2023/12/27 06:07:51;;;;;;;0.22;0.22;;;;;;;5.59;77.40;100259.94;5096153;28;20048;-66
2023/12/27 06:10:20;;;;;;;2.03;1.07;;;;;;;5.46;77.37;100257.84;5096137;28;20093;-65
2023/12/27 06:12:50;;;;;;;0.27;0.27;;;;;;;5.35;78.29;100265.97;5096341;28;20476;-66
2023/12/27 06:15:19;;;;;;;1.08;0.85;;;;;;;5.25;78.19;100269.09;5096329;28;20048;-65
2023/12/27 06:17:48;;;;;;;0.45;0.45;;;;;;;5.23;78.28;100280.81;5096236;28;20112;-65
2023/12/27 06:20:17;;;;;;;0.45;0.40;;;;;;;5.10;78.70;100277.88;5095806;28;20138;-65
2023/12/27 06:22:46;;;;;;;0.30;0.30;;;;;;;4.99;79.04;100277.53;5096072;28;20386;-65
2023/12/27 06:25:15;;;;;;;0.60;0.60;;;;;;;4.90;79.31;100274.72;5095707;28;20136;-65
2023/12/27 06:27:44;;;;;;;0.40;0.40;;;;;;;4.84;79.29;100269.47;5094957;28;20433;-66
2023/12/27 06:30:15;;;;;;;0.50;0.50;;;;;;;4.71;79.22;100262.31;5096043;28;20075;-65
2023/12/27 06:32:44;;;;;;;1.05;1.00;;;;;;;4.68;79.63;100273.19;5095672;28;20283;-66
2023/12/27 06:35:13;;;;;;;0.30;0.30;;;;;;;4.69;79.97;100291.75;5095910;28;20067;-65
2023/12/27 06:37:42;;;;;;;0.30;0.30;;;;;;;4.61;80.33;100305.78;5096016;28;20082;-66
2023/12/27 06:40:14;;;;;;;0.30;0.30;;;;;;;4.63;80.30;100304.19;5094893;28;20036;-65
2023/12/27 06:42:43;;;;;;;0.30;0.30;;;;;;;4.62;80.58;100303.34;5096043;28;20432;-65
2023/12/27 06:45:12;;;;;;;0.35;0.35;;;;;;;4.60;80.69;100284.72;5095593;28;20040;-65
2023/12/27 06:47:42;;;;;;;2.03;1.42;;;;;;;4.58;80.85;100290.53;5095883;28;20044;-65
2023/12/27 06:50:11;;;;;;;0.40;0.40;;;;;;;4.53;81.09;100292.06;5095018;28;20063;-65
2023/12/27 06:52:40;;;;;;;0.30;0.30;;;;;;;4.51;81.46;100293.69;5095696;28;20040;-65
2023/12/27 06:55:09;;;;;;;0.80;0.80;;;;;;;4.53;81.79;100303.03;5095296;28;20036;-65
2023/12/27 06:57:39;;;;;;;0.30;0.30;;;;;;;4.64;82.05;100300.84;5095643;28;20036;-65
2023/12/27 07:00:10;;;;;;;0.20;0.20;;;;;;;4.74;82.30;100302.88;5095330;28;20052;-65
2023/12/27 07:02:39;;;;;;;1.42;0.95;;;;;;;4.89;82.74;100303.38;5094946;28;20115;-65
2023/12/27 07:05:11;;;;;;;0.22;0.22;;;;;;;5.09;82.51;100306.50;5095839;28;20097;-65
2023/12/27 07:07:41;;;;;;;0.30;0.30;;;;;;;5.25;82.51;100286.78;5095519;28;20040;-65
2023/12/27 07:10:10;;;;;;;0.30;0.30;;;;;;;5.54;82.43;100307.03;5095484;28;20047;-65
2023/12/27 07:12:41;;;;;;;0.65;0.65;;;;;;;5.75;82.24;100307.66;5094288;28;20513;-65
2023/12/27 07:15:11;;;;;;;0.30;0.30;;;;;;;5.94;81.60;100294.72;5095274;28;20029;-65
2023/12/27 07:17:40;;;;;;;0.30;0.30;;;;;;;6.04;81.38;100291.63;5095555;28;20040;-65
2023/12/27 07:20:11;;;;;;;0.37;0.37;;;;;;;6.13;81.55;100302.00;5095165;28;20123;-65
2023/12/27 07:22:40;;;;;;;0.40;0.40;;;;;;;6.19;80.40;100303.84;5095119;28;20052;-65
2023/12/27 07:25:09;;;;;;;0.30;0.30;;;;;;;6.22;80.26;100316.56;5095051;28;20036;-65
2023/12/27 07:27:39;;;;;;;0.98;0.90;;;;;;;6.23;79.95;100319.16;5095058;28;20047;-65
2023/12/27 07:30:09;;;;;;;0.90;0.85;;;;;;;6.26;80.17;100319.25;5094913;28;20067;-66
2023/12/27 07:32:38;;;;;;;0.60;0.60;;;;;;;6.28;79.48;100321.81;5095002;28;20055;-65
2023/12/27 07:35:07;;;;;;;0.30;0.30;;;;;;;6.27;79.72;100320.97;5094839;28;20129;-65
2023/12/27 07:37:37;;;;;;;2.17;1.25;;;;;;;6.29;79.31;100324.38;5094125;28;20055;-66
2023/12/27 07:40:07;;;;;;;0.47;0.47;;;;;;;6.29;78.74;100328.59;5094862;28;20063;-65
2023/12/27 07:42:36;;;;;;;0.30;0.30;;;;;;;6.32;78.61;100334.63;5094476;28;20506;-66
2023/12/27 07:45:06;;;;;;;2.20;2.00;;;;;;;6.36;79.41;100338.94;5094727;28;20543;-65
2023/12/27 07:47:35;;;;;;;4.22;0.77;;;;;;;6.40;78.67;100353.44;5094753;28;20047;-66
2023/12/27 07:50:05;;;;;;;0.30;0.30;;;;;;;6.42;79.21;100345.84;5094634;28;20147;-65
2023/12/27 07:52:34;;;;;;;1.45;1.33;;;;;;;6.49;79.06;100351.13;5094549;28;20040;-66
2023/12/27 07:55:05;;;;;;;0.40;0.40;;;;;;;6.67;79.40;100356.66;5092631;28;20060;-66
2023/12/27 07:57:34;;;;;;;0.50;0.50;;;;;;;6.79;78.93;100367.97;5093536;28;20498;-66
2023/12/27 08:00:07;;;;;;;0.40;0.40;;;;;;;6.95;78.20;100364.97;5094454;28;20056;-66
2023/12/27 08:02:40;;;;;;;0.57;0.55;;;;;;;7.19;78.36;100381.66;5094063;28;20072;-66
2023/12/27 08:05:10;;;;;;;0.50;0.50;;;;;;;7.38;78.54;100377.88;5093883;28;20051;-65
2023/12/27 08:07:39;;;;;;;1.10;1.10;;;;;;;7.62;77.66;100391.13;5094001;28;20051;-66
2023/12/27 08:10:10;;;;;;;1.33;1.23;;;;;;;7.83;77.64;100394.13;5094317;28;20040;-66
2023/12/27 08:12:39;;;;;;;0.30;0.30;;;;;;;8.01;77.26;100399.59;5094210;28;20047;-66
2023/12/27 08:15:11;;;;;;;0.60;0.60;;;;;;;8.04;76.14;100402.22;5093954;28;20071;-66
2023/12/27 08:17:40;;;;;;;0.40;0.40;;;;;;;8.09;75.20;100418.41;5094105;28;20043;-66
2023/12/27 08:20:10;;;;;;;1.58;1.48;;;;;;;8.02;73.92;100424.22;5093740;28;20040;-66
2023/12/27 08:22:39;;;;;;;0.70;0.70;;;;;;;8.08;73.93;100429.44;5092432;28;20052;-65
2023/12/27 08:25:12;;;;;;;0.60;0.60;;;;;;;8.05;73.68;100434.44;5093571;28;20505;-65
2023/12/27 08:27:41;;;;;;;0.60;0.60;;;;;;;8.09;73.69;100441.31;5092891;28;20553;-66
2023/12/27 08:30:11;;;;;;;0.52;0.52;;;;;;;8.13;74.05;100436.28;5093827;28;20487;-65
2023/12/27 08:32:40;;;;;;;0.30;0.30;;;;;;;8.18;74.06;100444.88;5093612;28;20130;-66
2023/12/27 08:35:09;;;;;;;0.38;0.38;;;;;;;8.26;73.54;100445.88;5093595;28;20398;-65
2023/12/27 08:37:38;;;;;;;1.53;1.23;;;;;;;8.33;72.90;100452.84;5093629;28;20046;-66
2023/12/27 08:40:10;;;;;;;0.80;0.80;;;;;;;8.50;73.58;100446.41;5093665;28;20123;-66
2023/12/27 08:42:39;;;;;;;0.43;0.43;;;;;;;8.59;73.44;100447.44;5094020;28;20277;-66
2023/12/27 08:45:08;;;;;;;0.40;0.40;;;;;;;8.75;73.14;100458.78;5093798;28;20044;-66
2023/12/27 08:47:37;;;;;;;0.60;0.60;;;;;;;8.91;72.64;100475.19;5093470;28;20273;-66
2023/12/27 08:50:07;;;;;;;1.13;0.77;;;;;;;9.02;72.55;100468.63;5095196;28;20055;-66
2023/12/27 08:52:36;;;;;;;1.02;0.95;;;;;;;9.09;71.35;100465.34;5097974;28;20056;-66
2023/12/27 08:55:08;;;;;;;0.80;0.70;;;;;;;9.17;71.05;100467.19;5097965;28;20032;-65
2023/12/27 08:57:39;;;;;;;2.20;0.95;;;;;;;9.21;70.10;100465.56;5097856;28;20055;-65
2023/12/27 09:00:10;;;;;;;0.40;0.40;;;;;;;9.29;70.17;100475.03;5097840;28;20067;-65
2023/12/27 09:02:39;;;;;;;0.50;0.50;;;;;;;9.38;69.49;100480.28;5096836;28;20102;-65
2023/12/27 09:05:08;;;;;;;0.80;0.80;;;;;;;9.47;68.86;100471.97;5097460;28;20481;-65
2023/12/27 09:07:38;;;;;;;1.83;1.58;;;;;;;9.54;68.21;100483.09;5097505;28;20461;-66
2023/12/27 09:10:08;;;;;;;0.40;0.40;;;;;;;9.61;67.92;100482.38;5097453;28;20044;-65
2023/12/27 09:12:40;;;;;;;0.30;0.30;;;;;;;9.75;67.31;100480.88;5097655;28;20044;-66
2023/12/27 09:15:09;;;;;;;0.93;0.93;;;;;;;9.84;67.18;100483.56;5097670;28;20054;-66
2023/12/27 09:17:38;;;;;;;0.50;0.50;;;;;;;9.91;66.88;100482.84;5097532;28;20040;-65
2023/12/27 09:20:09;;;;;;;0.55;0.47;;;;;;;9.98;66.33;100487.22;5097911;28;20046;-65
2023/12/27 09:22:38;;;;;;;0.95;0.88;;;;;;;10.04;65.84;100487.28;5097569;28;20100;-65
2023/12/27 09:25:07;;;;;;;0.70;0.70;;;;;;;10.13;65.06;100482.34;5097972;28;20521;-65
2023/12/27 09:27:36;;;;;;;0.40;0.40;;;;;;;10.16;64.65;100484.94;5096488;28;20408;-65
2023/12/27 09:30:07;;;;;;;0.30;0.30;;;;;;;9.94;64.39;100462.47;5097021;28;20483;-65
2023/12/27 09:32:37;;;;;;;3.55;1.02;;;;;;;10.01;63.92;100479.56;5097955;28;20075;-65
2023/12/27 09:35:07;;;;;;;1.25;1.15;;;;;;;10.04;63.96;100479.63;5097205;28;20043;-65
2023/12/27 09:37:36;;;;;;;0.38;0.38;;;;;;;10.03;63.14;100488.09;5096945;28;20044;-65
2023/12/27 09:40:06;;;;;;;0.60;0.60;;;;;;;10.10;63.37;100479.72;5097147;28;20379;-65
2023/12/27 09:42:38;;;;;;;0.60;0.40;;;;;;;10.14;63.07;100471.31;5097141;28;20071;-65
2023/12/27 09:45:10;;;;;;;0.60;0.60;;;;;;;10.14;62.61;100463.66;5096771;28;20055;-65
2023/12/27 09:47:41;;;;;;;1.70;0.70;;;;;;;10.03;62.32;100467.69;5096953;28;20460;-65
2023/12/27 09:50:11;;;;;;;0.43;0.43;;;;;;;10.19;62.43;100464.56;5096989;28;20155;-65
2023/12/27 09:52:42;;;;;;;4.22;0.80;;;;;;;10.28;61.53;100464.69;5096564;28;20047;-65
2023/12/27 09:55:12;;;;;;;0.32;0.32;;;;;;;10.15;61.21;100465.34;5096543;28;20559;-65
2023/12/27 09:57:41;;;;;;;;;;;;;;;10.16;61.53;100463.66;5097181;28;20043;-65
2023/12/27 10:00:13;;;;;;;0.50;0.50;;;;;;;10.25;61.44;100459.53;5096759;28;19920;-65
2023/12/27 10:02:44;;;;;;;0.50;0.50;;;;;;;10.48;61.44;100467.50;5096402;28;20482;-65
2023/12/27 10:05:21;;;;;;;0.30;0.30;;;;;;;10.49;60.83;100470.06;5096342;28;20375;-65
2023/12/27 10:07:50;;;;;;;0.82;0.65;;;;;;;10.39;60.65;100482.69;5096444;28;20101;-65
2023/12/27 10:10:19;;;;;;;0.32;0.32;;;;;;;10.30;60.56;100475.78;5096476;28;20044;-65
2023/12/27 10:12:56;;;;;;;0.50;0.50;;;;;;;10.28;59.96;100480.00;5096246;28;20091;-65
2023/12/27 10:15:26;;;;;;;0.90;0.73;;;;;;;10.29;59.82;100476.63;5096504;28;20047;-65
2023/12/27 10:17:56;;;;;;;0.40;0.40;;;;;;;10.46;60.26;100469.19;5096414;28;20399;-65
2023/12/27 10:20:32;;;;;;;1.83;0.93;;;;;;;10.79;60.22;100459.34;5096418;28;20128;-65
2023/12/27 10:23:02;;;;;;;0.60;0.60;;;;;;;10.97;59.38;100451.00;5096186;28;20560;-65
2023/12/27 10:25:32;;;;;;;0.32;0.32;;;;;;;11.14;59.09;100458.00;5095967;28;20044;-65
2023/12/27 10:28:01;;;;;;;3.25;1.00;;;;;;;11.24;58.39;100456.38;5096331;28;20040;-65
2023/12/27 10:30:32;;;;;;;0.40;0.40;;;;;;;11.24;57.62;100448.72;5096026;28;20044;-65
2023/12/27 10:33:02;;;;;;;2.83;1.85;;;;;;;11.20;57.97;100455.53;5096270;28;20390;-65
2023/12/27 10:35:34;;;;;;;1.95;1.55;;;;;;;11.21;58.17;100456.34;5095847;28;20394;-65
2023/12/27 10:38:05;;;;;;;0.82;0.77;;;;;;;11.03;58.80;100459.59;5096156;28;20071;-65
2023/12/27 10:40:36;;;;;;;0.45;0.45;;;;;;;10.83;59.10;100460.22;5094727;28;20117;-64
2023/12/27 10:43:04;;;;;;;;;;;;;;;10.72;59.53;100463.50;5096351;28;20057;-64
2023/12/27 10:45:35;;;;;;;1.05;1.00;;;;;;;10.81;59.95;100456.81;5095456;28;19920;-64
2023/12/27 10:48:05;;;;;;;1.00;0.98;;;;;;;10.75;59.81;100463.56;5095572;28;20048;-64
2023/12/27 10:50:35;;;;;;;1.95;1.17;;;;;;;10.58;59.31;100456.56;5095905;28;20044;-64
2023/12/27 10:53:06;;;;;;;0.32;0.32;;;;;;;10.65;59.94;100456.63;5095534;28;20075;-64
2023/12/27 10:55:37;;;;;;;0.40;0.40;;;;;;;10.74;59.70;100458.44;5095806;28;20048;-64
2023/12/27 10:58:13;;;;;;;0.80;0.80;;;;;;;10.68;59.76;100459.22;5095659;28;20568;-64
2023/12/27 11:00:43;;;;;;;0.40;0.40;;;;;;;10.91;59.97;100458.63;5094364;28;20048;-65
2023/12/27 11:03:13;;;;;;;0.52;0.52;;;;;;;11.04;59.98;100455.34;5095183;28;20436;-65
2023/12/27 11:05:43;;;;;;;0.30;0.30;;;;;;;10.99;59.11;100446.78;5095666;28;20032;-64
2023/12/27 11:08:14;;;;;;;0.50;0.50;;;;;;;11.14;59.36;100444.38;5095534;28;20044;-65
2023/12/27 11:10:46;;;;;;;1.08;0.68;;;;;;;11.28;59.21;100443.66;5094179;28;20051;-65
2023/12/27 11:13:17;;;;;;;0.40;0.40;;;;;;;11.29;58.55;100432.59;5094662;28;20040;-64
2023/12/27 11:15:50;;;;;;;0.50;0.50;;;;;;;11.12;58.00;100446.06;5095658;28;20094;-64
2023/12/27 11:18:19;;;;;;;0.50;0.50;;;;;;;11.15;58.63;100428.22;5094985;28;20048;-65
2023/12/27 11:20:51;;;;;;;0.85;0.85;;;;;;;11.26;58.78;100439.38;5095539;28;20048;-64
2023/12/27 11:23:21;;;;;;;0.73;0.60;;;;;;;11.34;59.19;100435.19;5095049;28;20105;-65
2023/12/27 11:25:51;;;;;;;0.52;0.50;;;;;;;11.57;59.20;100436.22;5094806;28;20040;-65
2023/12/27 11:28:20;;;;;;;0.40;0.40;;;;;;;11.78;58.95;100427.88;5095103;28;20063;-65
2023/12/27 11:30:51;;;;;;;0.35;0.35;;;;;;;11.79;58.25;100433.00;5094650;28;20128;-64
2023/12/27 11:33:21;;;;;;;0.30;0.30;;;;;;;11.79;57.61;100425.31;5093522;28;20101;-65
2023/12/27 11:35:52;;;;;;;0.50;0.50;;;;;;;11.77;57.22;100431.28;5094883;28;20055;-65
2023/12/27 11:38:27;;;;;;;0.40;0.40;;;;;;;11.73;57.08;100425.31;5095217;28;20036;-65
2023/12/27 11:40:58;;;;;;;0.70;0.70;;;;;;;11.79;57.30;100422.75;5094656;28;20127;-65
2023/12/27 11:43:28;;;;;;;0.55;0.55;;;;;;;12.02;57.53;100413.50;5094822;28;20047;-65
2023/12/27 11:45:57;;;;;;;0.40;0.40;;;;;;;11.94;57.06;100415.19;5094402;28;20524;-65